Blairstown, New Jersey
Current Conditions -  °F | °C
As of 4:53 AM on Sunday 26 Oct 2014 (Local Time) from KFWN Reporting Station
Clear Clear  
Wind Chill: 54°   Ceiling: Unl
Heat Index: 54°   Visibility: 10mi
Dew Point: 39°   Wind: 9mph
Humidity: 57%   Direction: 310°NW
Pressure: 29.61"   Gusts: NA
Location:  40.98°N, 74.96°W
Report Text: KFWN 260853Z AUTO 31008KT 270V340 10SM CLR 12/04 A2961 RMK AO2 SLP025 T01220039 53017
Loading
Personal Weather Stations






























Interactive Weather Map
Tropical Storm Tracking
New forecast layout! Learn more

10-Day Weather Forecast

Advertisements
Track Severe Weather on mobile